Time;durP1;ratioP1;P1;durP2;ratioP2;P2;SDS_P1;SDS_P2;PMS_P1;PMS_P2;Temp;Humidity;BMP_temperature;BMP_pressure;BME280_temperature;BME280_humidity;BME280_pressure;Samples;Min_cycle;Max_cycle;Signal;HPM_P1;HPM_P2
2022/10/16 00:01:34;;;;;;;11.60;8.40;;;;;;;-143.84;76.06;45151.91;5074560;28;20948;-74
2022/10/16 00:04:03;;;;;;;17.93;8.00;;;;;;;-143.84;76.15;45150.00;5075065;28;20439;-74
2022/10/16 00:06:32;;;;;;;8.50;7.50;;;;;;;-143.84;75.83;45178.56;5074807;28;20463;-74
2022/10/16 00:08:59;;;;;;;17.40;7.53;;;;;;;-143.84;75.95;45169.03;5074521;28;21147;-73
2022/10/16 00:11:28;;;;;;;13.93;7.90;;;;;;;-143.84;76.00;45146.19;5074150;28;20500;-73
2022/10/16 00:13:58;;;;;;;11.70;7.97;;;;;;;-143.84;76.06;45148.09;5074028;28;20563;-73
2022/10/16 00:16:26;;;;;;;16.63;7.63;;;;;;;-143.84;76.01;45136.66;5075041;28;20438;-74
2022/10/16 00:18:53;;;;;;;10.57;7.50;;;;;;;-143.84;76.09;45138.56;5074432;28;20441;-74
2022/10/16 00:21:23;;;;;;;10.20;6.63;;;;;;;-143.84;75.76;45174.75;5074403;28;20500;-74
2022/10/16 00:23:52;;;;;;;12.43;7.50;;;;;;;-143.84;76.21;45146.19;5078190;28;20432;-74
2022/10/16 00:26:20;;;;;;;12.73;7.50;;;;;;;-143.84;75.89;45163.31;5094673;28;20432;-73
2022/10/16 00:28:47;;;;;;;10.10;7.63;;;;;;;-143.84;75.91;45142.38;5093573;28;20839;-73
2022/10/16 00:31:15;;;;;;;8.50;6.90;;;;;;;-143.84;76.09;45157.59;5094203;28;20508;-74
2022/10/16 00:33:42;;;;;;;7.70;6.93;;;;;;;-143.84;75.64;45129.03;5093247;28;20451;-74
2022/10/16 00:36:12;;;;;;;9.20;7.13;;;;;;;-143.84;75.56;45163.31;5094005;28;20467;-74
2022/10/16 00:38:42;;;;;;;12.83;6.63;;;;;;;-143.84;75.68;45165.22;5094326;28;20445;-74
2022/10/16 00:41:13;;;;;;;8.43;6.53;;;;;;;-143.84;75.32;45148.09;5094625;28;20442;-74
2022/10/16 00:43:43;;;;;;;8.33;7.00;;;;;;;-143.84;75.67;45180.47;5094533;28;20448;-74
2022/10/16 00:46:22;;;;;;;7.00;5.70;;;;;;;-143.84;75.24;45138.56;5094531;28;20432;-74
2022/10/16 00:48:53;;;;;;;15.47;6.70;;;;;;;-143.84;75.24;45161.41;5094405;28;20424;-74
2022/10/16 00:51:26;;;;;;;12.33;8.40;;;;;;;-143.84;75.28;45167.13;5093981;28;20439;-74
2022/10/16 00:53:56;;;;;;;10.00;7.40;;;;;;;-143.84;75.35;45174.75;5094581;28;20429;-74
2022/10/16 00:56:24;;;;;;;8.33;7.07;;;;;;;-143.84;75.39;45142.38;5094203;28;20452;-73
2022/10/16 00:58:51;;;;;;;7.30;6.60;;;;;;;-143.84;75.32;45151.91;5094619;28;20490;-74
2022/10/16 01:01:18;;;;;;;10.53;7.23;;;;;;;-143.84;75.32;45159.50;5094184;28;20813;-74
2022/10/16 01:03:46;;;;;;;8.43;6.73;;;;;;;-143.84;75.60;45151.91;5093868;28;20939;-74
2022/10/16 01:06:35;;;;;;;9.60;7.13;;;;;;;-143.84;75.52;45155.69;5094158;28;20482;-73
2022/10/16 01:09:14;;;;;;;11.03;6.40;;;;;;;-143.84;75.63;45159.50;5093688;28;20443;-74
2022/10/16 01:11:50;;;;;;;12.17;7.60;;;;;;;-143.84;75.38;45151.91;5094096;28;20436;-74
2022/10/16 01:14:23;;;;;;;11.80;6.73;;;;;;;-143.84;75.17;45150.00;5095715;28;20578;-73
2022/10/16 01:16:56;;;;;;;18.83;7.70;;;;;;;-143.84;75.62;45157.59;5093856;28;20910;-73
2022/10/16 01:19:41;;;;;;;10.33;5.73;;;;;;;-143.84;75.33;45146.19;5093546;28;20495;-73
2022/10/16 01:22:10;;;;;;;12.93;7.60;;;;;;;-143.84;75.47;45155.69;5093501;28;20500;-73
2022/10/16 01:24:43;;;;;;;10.67;6.40;;;;;;;-143.84;75.44;45159.50;5093005;28;20424;-73
2022/10/16 01:27:14;;;;;;;11.93;7.10;;;;;;;-143.84;75.38;45163.31;5093258;28;20445;-73
2022/10/16 01:29:50;;;;;;;8.23;6.43;;;;;;;-143.84;75.49;45134.75;5093378;28;20474;-73
2022/10/16 01:32:22;;;;;;;12.17;5.53;;;;;;;-143.84;75.29;45189.97;5092765;28;20451;-74
2022/10/16 01:34:53;;;;;;;10.13;5.40;;;;;;;-143.84;75.24;45138.56;5092065;28;20440;-74
2022/10/16 01:37:37;;;;;;;8.60;5.73;;;;;;;-143.84;75.07;45172.84;5092283;28;20444;-74
2022/10/16 01:40:09;;;;;;;7.17;6.40;;;;;;;-143.84;74.90;45155.69;5092303;28;20523;-73
2022/10/16 01:42:40;;;;;;;11.03;6.20;;;;;;;-143.84;74.45;45146.19;5092092;28;20572;-73
2022/10/16 01:45:11;;;;;;;8.63;5.93;;;;;;;-143.84;74.27;45170.94;5091940;28;20446;-73
2022/10/16 01:47:40;;;;;;;6.50;5.60;;;;;;;-143.84;74.24;45134.75;5091654;28;20443;-73
2022/10/16 01:50:09;;;;;;;9.17;6.00;;;;;;;-143.84;74.08;45148.09;5092042;28;20514;-73
2022/10/16 01:52:40;;;;;;;16.13;6.00;;;;;;;-143.84;74.23;45201.41;5092143;28;20501;-73
2022/10/16 01:55:11;;;;;;;6.70;5.50;;;;;;;-143.84;74.59;45130.94;5091808;28;20496;-73
2022/10/16 01:57:44;;;;;;;9.37;5.13;;;;;;;-143.84;74.84;45161.41;5092055;28;20504;-73
2022/10/16 02:00:15;;;;;;;5.77;5.17;;;;;;;-143.84;75.27;45138.56;5091533;28;20452;-73
2022/10/16 02:02:46;;;;;;;10.23;5.83;;;;;;;-143.84;75.69;45174.75;5091438;28;20445;-73
2022/10/16 02:05:21;;;;;;;5.27;4.77;;;;;;;-143.84;75.64;45148.09;5091853;28;20912;-73
2022/10/16 02:07:48;;;;;;;14.73;5.87;;;;;;;-143.84;75.72;45174.75;5091739;28;20439;-73
2022/10/16 02:10:16;;;;;;;7.27;5.10;;;;;;;-143.84;75.62;45134.75;5091666;28;20548;-73
2022/10/16 02:12:50;;;;;;;5.07;4.50;;;;;;;-143.84;75.57;45136.66;5091264;28;20531;-73
2022/10/16 02:15:17;;;;;;;4.27;3.70;;;;;;;-143.84;75.38;45176.66;5091341;28;20447;-73
2022/10/16 02:17:45;;;;;;;6.73;4.57;;;;;;;-143.84;75.17;45144.28;5091691;28;20450;-73
2022/10/16 02:20:12;;;;;;;11.97;4.17;;;;;;;-143.84;74.72;45163.31;5091768;28;20484;-73
2022/10/16 02:22:42;;;;;;;7.83;3.83;;;;;;;-143.84;74.49;45153.81;5091279;28;20839;-73
2022/10/16 02:25:14;;;;;;;5.43;4.40;;;;;;;-143.84;74.05;45148.09;5091600;28;20439;-73
2022/10/16 02:27:51;;;;;;;6.93;3.67;;;;;;;-143.84;73.84;45159.50;5091301;28;20444;-73
2022/10/16 02:30:24;;;;;;;6.67;4.33;;;;;;;-143.84;73.67;45163.31;5091181;28;20466;-73
2022/10/16 02:32:53;;;;;;;5.13;3.87;;;;;;;-143.84;73.19;45169.03;5090898;28;20461;-73
2022/10/16 02:35:23;;;;;;;6.20;4.37;;;;;;;-143.84;73.06;45167.13;5091025;28;20440;-73
2022/10/16 02:37:51;;;;;;;13.43;4.73;;;;;;;-143.84;72.59;45178.56;5091066;28;20496;-73
2022/10/16 02:40:19;;;;;;;19.03;5.37;;;;;;;-143.84;72.13;45165.22;5091363;28;20432;-73
2022/10/16 02:42:54;;;;;;;4.20;3.80;;;;;;;-143.84;71.68;45151.91;5091156;28;20509;-73
2022/10/16 02:45:22;;;;;;;6.57;4.63;;;;;;;-143.84;71.56;45172.84;5090925;28;20446;-73
2022/10/16 02:47:49;;;;;;;27.97;4.97;;;;;;;-143.84;71.35;45151.91;5090758;28;20428;-73
2022/10/16 02:50:17;;;;;;;6.60;4.40;;;;;;;-143.84;71.02;45155.69;5090741;28;20483;-73
2022/10/16 02:52:44;;;;;;;7.27;4.70;;;;;;;-143.84;71.12;45172.84;5090634;28;20500;-73
2022/10/16 02:55:11;;;;;;;6.63;4.30;;;;;;;-143.84;70.90;45157.59;5090817;28;20433;-73
2022/10/16 02:57:40;;;;;;;11.30;4.50;;;;;;;-143.84;70.96;45155.69;5090652;28;20443;-73
2022/10/16 03:00:12;;;;;;;7.83;4.93;;;;;;;-143.84;70.92;45153.81;5090965;28;20533;-73
2022/10/16 03:02:40;;;;;;;8.40;4.60;;;;;;;-143.84;71.40;45167.13;5091032;28;20879;-73
2022/10/16 03:05:08;;;;;;;18.93;5.60;;;;;;;-143.84;71.78;45165.22;5090781;28;20954;-73
2022/10/16 03:07:35;;;;;;;12.83;4.90;;;;;;;-143.84;72.30;45159.50;5091054;28;20436;-73
2022/10/16 03:10:02;;;;;;;5.30;4.90;;;;;;;-143.84;72.45;45170.94;5090796;28;20474;-73
2022/10/16 03:12:30;;;;;;;5.20;3.70;;;;;;;-143.84;72.82;45178.56;5090531;28;21061;-73
2022/10/16 03:14:57;;;;;;;7.60;4.70;;;;;;;-143.84;73.19;45169.03;5090747;28;20450;-73
2022/10/16 03:17:26;;;;;;;8.60;4.30;;;;;;;-143.84;73.17;45153.81;5090515;28;20434;-72
2022/10/16 03:19:54;;;;;;;5.60;5.07;;;;;;;-143.84;73.70;45178.56;5089557;28;20485;-73
2022/10/16 03:22:21;;;;;;;7.33;4.17;;;;;;;-143.84;73.98;45165.22;5089554;28;20515;-73
2022/10/16 03:24:48;;;;;;;11.33;5.00;;;;;;;-143.84;74.00;45191.88;5081672;28;20473;-73
2022/10/16 03:27:16;;;;;;;7.20;4.93;;;;;;;-143.84;74.38;45167.13;5079906;28;20432;-73
2022/10/16 03:29:43;;;;;;;7.73;5.03;;;;;;;-143.84;74.55;45174.75;5069292;28;20513;-73
2022/10/16 03:32:10;;;;;;;9.37;5.53;;;;;;;-143.84;74.37;45165.22;5069238;28;20794;-73
2022/10/16 03:34:39;;;;;;;6.93;4.70;;;;;;;-143.84;74.52;45184.25;5069562;28;20815;-73
2022/10/16 03:37:06;;;;;;;9.83;5.27;;;;;;;-143.84;74.68;45165.22;5069351;28;20444;-73
2022/10/16 03:39:33;;;;;;;7.07;5.00;;;;;;;-143.84;74.53;45148.09;5068912;28;20443;-73
2022/10/16 03:42:01;;;;;;;10.63;6.10;;;;;;;-143.84;74.61;45180.47;5068217;28;20440;-73
2022/10/16 03:44:28;;;;;;;6.87;5.17;;;;;;;-143.84;74.77;45180.47;5068256;28;21037;-73
2022/10/16 03:46:55;;;;;;;5.93;4.83;;;;;;;-143.84;74.55;45142.38;5068470;28;20455;-73
2022/10/16 03:49:22;;;;;;;12.43;5.67;;;;;;;-143.84;74.63;45155.69;5068333;28;20904;-73
2022/10/16 03:51:50;;;;;;;5.63;5.10;;;;;;;-143.84;74.78;45167.13;5067268;28;21027;-73
2022/10/16 03:54:18;;;;;;;5.43;4.77;;;;;;;-143.84;74.68;45188.06;5068609;28;20518;-73
2022/10/16 03:56:45;;;;;;;7.10;5.10;;;;;;;-143.84;75.09;45226.16;5069084;28;20438;-73
2022/10/16 03:59:12;;;;;;;5.77;4.93;;;;;;;-143.84;75.04;45174.75;5068416;28;20439;-72
2022/10/16 04:01:39;;;;;;;6.73;5.20;;;;;;;-143.84;75.37;45167.13;5068345;28;20494;-72
2022/10/16 04:04:07;;;;;;;5.83;4.83;;;;;;;-143.84;75.24;45172.84;5072645;28;20454;-75
2022/10/16 04:06:34;;;;;;;6.50;5.10;;;;;;;-143.84;75.19;45197.59;5089752;28;20447;-73
2022/10/16 04:09:02;;;;;;;5.80;5.00;;;;;;;-143.84;75.50;45163.31;5092471;28;20438;-73
2022/10/16 04:11:29;;;;;;;6.93;4.50;;;;;;;-143.84;75.90;45169.03;5093827;28;21309;-73
2022/10/16 04:13:56;;;;;;;5.50;5.00;;;;;;;-143.84;76.02;45184.25;5093335;28;20898;-72
2022/10/16 04:16:24;;;;;;;6.40;5.23;;;;;;;-143.84;75.71;45189.97;5092540;28;20434;-73
2022/10/16 04:18:51;;;;;;;14.50;6.43;;;;;;;-143.84;76.18;45189.97;5092605;28;20434;-75
2022/10/16 04:21:18;;;;;;;7.20;5.93;;;;;;;-143.84;75.46;45167.13;5094503;28;20435;-73
2022/10/16 04:23:45;;;;;;;14.80;7.33;;;;;;;-143.84;74.75;45153.81;5092807;28;20471;-74
2022/10/16 04:26:14;;;;;;;7.13;5.87;;;;;;;-143.84;74.96;45186.16;5092692;28;20431;-74
2022/10/16 04:28:41;;;;;;;10.77;6.33;;;;;;;-143.84;74.96;45184.25;5092573;28;20442;-73
2022/10/16 04:31:08;;;;;;;7.50;6.90;;;;;;;-143.84;75.58;45176.66;5089115;28;20550;-70
2022/10/16 04:33:36;;;;;;;8.73;7.60;;;;;;;-143.84;75.03;45176.66;5073994;28;20516;-70
2022/10/16 04:36:04;;;;;;;14.23;7.63;;;;;;;-143.84;75.27;45188.06;5079084;28;20856;-72
2022/10/16 04:38:31;;;;;;;13.87;6.90;;;;;;;-143.84;75.23;45153.81;5091460;28;20440;-72
2022/10/16 04:40:59;;;;;;;10.70;6.47;;;;;;;-143.84;75.17;45146.19;5091866;28;20897;-70
2022/10/16 04:43:28;;;;;;;7.60;6.70;;;;;;;-143.84;75.53;45186.16;5092437;28;20457;-72
2022/10/16 04:45:56;;;;;;;11.63;6.33;;;;;;;-143.84;75.61;45161.41;5092458;28;20437;-71
2022/10/16 04:48:23;;;;;;;10.63;6.33;;;;;;;-143.84;75.86;45174.75;5092292;28;20454;-71
2022/10/16 04:50:50;;;;;;;7.10;6.40;;;;;;;-143.84;76.09;45159.50;5091715;28;20534;-71
2022/10/16 04:53:17;;;;;;;9.73;7.13;;;;;;;-143.84;75.95;45165.22;5091569;28;20433;-71
2022/10/16 04:55:45;;;;;;;9.63;7.67;;;;;;;-143.84;76.07;45176.66;5092095;28;20446;-71
2022/10/16 04:58:12;;;;;;;6.67;6.07;;;;;;;-143.84;76.03;45174.75;5092162;28;20449;-71
2022/10/16 05:00:41;;;;;;;9.73;6.43;;;;;;;-143.84;76.21;45199.50;5091959;28;20450;-72
2022/10/16 05:03:12;;;;;;;7.40;6.40;;;;;;;-143.84;76.13;45188.06;5091412;28;20881;-70
2022/10/16 05:05:46;;;;;;;6.73;5.47;;;;;;;-143.84;76.03;45146.19;5091833;28;20525;-72
2022/10/16 05:08:17;;;;;;;11.00;6.80;;;;;;;-143.84;75.69;45189.97;5091699;28;21239;-72
2022/10/16 05:10:49;;;;;;;9.87;5.73;;;;;;;-143.84;75.86;45167.13;5090022;28;20490;-74
2022/10/16 05:13:18;;;;;;;8.60;5.87;;;;;;;-143.84;75.27;45178.56;5088792;28;20478;-74
2022/10/16 05:15:53;;;;;;;9.87;6.23;;;;;;;-143.84;75.08;45172.84;5089626;28;21008;-74
2022/10/16 05:18:27;;;;;;;10.37;6.30;;;;;;;-143.84;74.90;45167.13;5090450;28;20434;-75
2022/10/16 05:20:58;;;;;;;6.13;5.63;;;;;;;-143.84;74.61;45155.69;5089979;28;20452;-74
2022/10/16 05:23:34;;;;;;;13.00;7.07;;;;;;;-143.84;73.57;45174.75;5088503;28;20454;-74
2022/10/16 05:26:01;;;;;;;10.33;7.03;;;;;;;-143.84;73.23;45159.50;5089138;28;20858;-74
2022/10/16 05:28:33;;;;;;;11.23;6.80;;;;;;;-143.84;72.33;45172.84;5090214;28;20989;-74
2022/10/16 05:31:05;;;;;;;6.67;6.00;;;;;;;-143.84;71.42;45144.28;5089148;28;20483;-75
2022/10/16 05:33:32;;;;;;;7.83;7.17;;;;;;;-143.84;70.26;45163.31;5090329;28;20436;-74
2022/10/16 05:36:02;;;;;;;14.23;7.50;;;;;;;-143.84;69.60;45178.56;5090463;28;20790;-75
2022/10/16 05:38:30;;;;;;;9.33;8.43;;;;;;;-143.84;68.54;45142.38;5089283;28;20455;-74
2022/10/16 05:40:57;;;;;;;10.77;7.13;;;;;;;-143.84;67.51;45155.69;5089836;28;20945;-75
2022/10/16 05:43:25;;;;;;;12.73;8.30;;;;;;;-143.84;66.47;45159.50;5089867;28;20444;-76
2022/10/16 05:45:57;;;;;;;7.90;7.00;;;;;;;-143.84;65.50;45130.94;5090090;28;20439;-75
2022/10/16 05:48:26;;;;;;;9.83;7.30;;;;;;;-143.84;64.74;45136.66;5090382;28;20440;-71
2022/10/16 05:51:00;;;;;;;8.30;7.17;;;;;;;-143.84;63.78;45129.03;5090222;28;20527;-77
2022/10/16 05:53:29;;;;;;;11.10;7.50;;;;;;;-143.84;62.64;45153.81;5089724;28;20510;-75
2022/10/16 05:55:57;;;;;;;18.00;6.93;;;;;;;-143.84;62.19;45150.00;5091073;28;20430;-74
2022/10/16 05:58:25;;;;;;;8.07;6.80;;;;;;;-143.84;61.01;45144.28;5092092;28;20493;-76
2022/10/16 06:00:56;;;;;;;10.03;6.53;;;;;;;-143.84;60.38;45159.50;5092229;28;20438;-74
2022/10/16 06:03:25;;;;;;;8.37;5.70;;;;;;;-143.84;59.27;45111.91;5092127;28;20500;-75
2022/10/16 06:05:52;;;;;;;8.50;5.70;;;;;;;-143.84;58.91;45136.66;5090709;28;20930;-74
2022/10/16 06:08:20;;;;;;;7.63;5.10;;;;;;;-143.84;58.51;45117.63;5090675;28;21025;-75
2022/10/16 06:10:48;;;;;;;5.77;4.10;;;;;;;-143.84;57.51;45140.47;5091263;28;20563;-75
2022/10/16 06:13:16;;;;;;;7.70;4.17;;;;;;;-143.84;57.05;45140.47;5091006;28;20483;-75
2022/10/16 06:15:44;;;;;;;4.10;3.63;;;;;;;-143.84;56.61;45132.84;5091181;28;20433;-73
2022/10/16 06:18:11;;;;;;;6.03;3.90;;;;;;;-143.84;55.83;45151.91;5090139;28;20492;-72
2022/10/16 06:20:39;;;;;;;5.50;3.80;;;;;;;-143.84;55.29;45136.66;5089519;28;20474;-72
2022/10/16 06:23:07;;;;;;;5.80;3.57;;;;;;;-143.84;55.41;45132.84;5089278;28;20524;-72
2022/10/16 06:25:34;;;;;;;4.43;3.63;;;;;;;-143.84;54.21;45115.72;5089647;28;20512;-72
2022/10/16 06:28:01;;;;;;;10.33;2.83;;;;;;;-143.84;53.98;45129.03;5089810;28;20436;-72
2022/10/16 06:30:28;;;;;;;6.23;2.80;;;;;;;-143.84;53.65;45110.00;5089161;28;20915;-73
2022/10/16 06:32:55;;;;;;;3.93;2.90;;;;;;;-143.84;53.66;45102.38;5089479;28;20443;-72
2022/10/16 06:35:23;;;;;;;6.30;2.70;;;;;;;-143.84;53.04;45121.44;5089539;28;21285;-72
2022/10/16 06:37:54;;;;;;;5.10;3.30;;;;;;;-143.84;52.38;45117.63;5089153;28;20444;-73
2022/10/16 06:40:21;;;;;;;17.13;2.67;;;;;;;-143.84;52.51;45117.63;5089663;28;20437;-72
2022/10/16 06:42:48;;;;;;;6.53;2.87;;;;;;;-143.84;51.67;45144.28;5089372;28;20446;-72
2022/10/16 06:45:15;;;;;;;4.20;2.43;;;;;;;-143.84;51.90;45090.97;5089308;28;20450;-72
2022/10/16 06:47:42;;;;;;;5.80;3.10;;;;;;;-143.84;52.26;45104.28;5089127;28;21004;-72
2022/10/16 06:50:10;;;;;;;4.33;2.60;;;;;;;-143.84;51.65;45094.78;5089528;28;20431;-73
2022/10/16 06:52:37;;;;;;;6.30;2.37;;;;;;;-143.84;49.93;45146.19;5088981;28;20481;-73
2022/10/16 06:55:07;;;;;;;6.10;3.00;;;;;;;-143.84;50.46;45096.66;5089219;28;20460;-72
2022/10/16 06:57:34;;;;;;;5.77;2.87;;;;;;;-143.84;49.81;45108.09;5089269;28;20440;-73
2022/10/16 07:00:01;;;;;;;4.60;2.50;;;;;;;-143.84;49.69;45106.19;5089155;28;20468;-73
2022/10/16 07:02:28;;;;;;;6.03;2.80;;;;;;;-143.84;49.39;45111.91;5089526;28;20435;-72
2022/10/16 07:04:56;;;;;;;5.13;2.43;;;;;;;-143.84;47.38;45136.66;5070096;28;20447;-72
2022/10/16 07:07:24;;;;;;;7.03;2.77;;;;;;;-143.84;46.60;45104.28;5068408;28;20906;-72
2022/10/16 07:09:51;;;;;;;7.97;2.50;;;;;;;-143.84;47.03;45113.81;5068762;28;20441;-72
2022/10/16 07:12:20;;;;;;;11.13;2.70;;;;;;;-143.84;46.51;45117.63;5068425;28;20588;-72
2022/10/16 07:14:47;;;;;;;6.63;2.50;;;;;;;-143.84;46.50;45111.91;5068952;28;20429;-72
2022/10/16 07:17:14;;;;;;;5.40;3.10;;;;;;;-143.84;46.50;45089.06;5068720;28;20799;-73
2022/10/16 07:19:41;;;;;;;11.97;2.43;;;;;;;-143.84;45.61;45102.38;5068824;28;20432;-73
2022/10/16 07:22:08;;;;;;;9.93;2.90;;;;;;;-143.84;46.29;45087.16;5067978;28;20429;-72
2022/10/16 07:24:35;;;;;;;6.67;3.33;;;;;;;-143.84;46.21;45090.97;5068844;28;20444;-73
2022/10/16 07:27:02;;;;;;;14.10;3.00;;;;;;;-143.84;44.92;45081.44;5069125;28;20791;-72
2022/10/16 07:29:31;;;;;;;4.77;2.60;;;;;;;-143.84;44.85;45073.81;5068582;28;20507;-72
2022/10/16 07:31:58;;;;;;;6.03;2.40;;;;;;;-143.84;43.19;45098.56;5068642;28;20477;-72
2022/10/16 07:34:26;;;;;;;6.83;3.07;;;;;;;-143.84;43.70;45083.34;5068621;28;20429;-72
2022/10/16 07:36:56;;;;;;;3.20;2.50;;;;;;;-143.84;43.75;45085.25;5068142;28;20441;-72
2022/10/16 07:39:23;;;;;;;3.20;2.43;;;;;;;-143.84;42.88;45077.63;5069388;28;20441;-75
2022/10/16 07:41:50;;;;;;;7.77;2.60;;;;;;;-143.84;42.93;45083.34;5070145;28;20498;-75
2022/10/16 07:44:17;;;;;;;5.33;2.13;;;;;;;-143.84;41.43;45111.91;5073635;28;20977;-76
2022/10/16 07:46:46;;;;;;;6.60;2.93;;;;;;;-143.84;41.66;45081.44;5073192;28;20445;-76
2022/10/16 07:49:13;;;;;;;2.87;2.37;;;;;;;-143.84;41.05;45077.63;5073657;28;20509;-76
2022/10/16 07:51:40;;;;;;;6.03;2.40;;;;;;;-143.84;41.03;45081.44;5078563;28;20486;-76
2022/10/16 07:54:09;;;;;;;6.23;2.57;;;;;;;-143.84;41.40;45049.06;5094112;28;20477;-77
2022/10/16 07:56:36;;;;;;;3.73;2.20;;;;;;;-143.84;40.17;45089.06;5093509;28;20515;-77
2022/10/16 07:59:03;;;;;;;2.83;1.90;;;;;;;-143.84;39.64;45077.63;5093661;28;20416;-78
2022/10/16 08:01:30;;;;;;;4.17;2.40;;;;;;;-143.84;39.69;45068.13;5093194;28;20436;-76
2022/10/16 08:04:01;;;;;;;3.00;2.40;;;;;;;-143.84;39.26;45077.63;5092830;28;20452;-76
2022/10/16 08:06:28;;;;;;;3.57;2.13;;;;;;;-143.84;37.89;45083.34;5092703;28;20432;-76
2022/10/16 08:08:57;;;;;;;3.87;2.13;;;;;;;-143.84;37.98;45033.84;5092397;28;20447;-76
2022/10/16 08:11:24;;;;;;;6.83;1.80;;;;;;;-143.84;38.50;45041.44;5092754;28;20475;-76
2022/10/16 08:13:51;;;;;;;4.90;2.20;;;;;;;-143.84;38.89;45054.78;5092203;28;20487;-76
2022/10/16 08:16:18;;;;;;;3.40;1.77;;;;;;;-143.84;38.14;45060.50;5092139;28;20501;-76
2022/10/16 08:18:46;;;;;;;8.23;1.60;;;;;;;-143.84;37.44;45085.25;5091982;28;20436;-76
2022/10/16 08:21:20;;;;;;;2.63;2.20;;;;;;;-143.84;38.90;45070.00;5091670;28;21295;-76
2022/10/16 08:23:47;;;;;;;5.20;2.70;;;;;;;-143.84;37.79;45047.16;5092118;28;20820;-76
2022/10/16 08:26:15;;;;;;;7.90;2.50;;;;;;;-143.84;37.78;45073.81;5091972;28;20742;-80
2022/10/16 08:28:42;;;;;;;7.70;2.10;;;;;;;-143.84;37.48;45070.00;5092299;28;20801;-74
2022/10/16 08:31:10;;;;;;;8.83;2.70;;;;;;;-143.84;37.29;45075.72;5092107;28;20436;-79
2022/10/16 08:33:37;;;;;;;3.00;1.57;;;;;;;-143.84;37.62;45064.31;5092601;28;20991;-74
2022/10/16 08:36:06;;;;;;;2.63;2.23;;;;;;;-143.84;36.82;45062.41;5079461;28;20475;-74
2022/10/16 08:38:35;;;;;;;3.53;2.00;;;;;;;-143.84;37.55;45047.16;5077368;28;20525;-75
2022/10/16 08:41:24;;;;;;;3.53;2.00;;;;;;;-143.84;37.23;45052.88;5071225;28;20547;-74
2022/10/16 08:44:22;;;;;;;4.70;2.17;;;;;;;-143.84;37.23;45075.72;5070992;28;20451;-75
2022/10/16 08:46:56;;;;;;;4.60;2.30;;;;;;;-143.84;37.91;45056.69;5070797;28;20457;-75
2022/10/16 08:49:24;;;;;;;4.70;2.10;;;;;;;-143.84;37.13;45056.69;5070159;28;20445;-75
2022/10/16 08:51:52;;;;;;;5.77;2.20;;;;;;;-143.84;36.03;45047.16;5070519;28;20883;-75
2022/10/16 08:54:30;;;;;;;17.90;2.67;;;;;;;-143.84;36.19;45075.72;5070181;28;20451;-75
2022/10/16 08:56:57;;;;;;;4.43;2.30;;;;;;;-143.84;36.57;45062.41;5070513;28;20607;-75
2022/10/16 08:59:25;;;;;;;6.90;2.57;;;;;;;-143.84;36.28;45035.75;5070380;28;20444;-75
2022/10/16 09:01:53;;;;;;;4.10;2.23;;;;;;;-143.84;36.24;45028.13;5070095;28;20453;-75
2022/10/16 09:04:54;;;;;;;4.73;2.23;;;;;;;-143.84;35.78;45058.59;5069912;28;20441;-75
2022/10/16 09:07:29;;;;;;;5.53;2.40;;;;;;;-143.84;36.25;45047.16;5070805;28;21300;-75
2022/10/16 09:10:16;;;;;;;3.33;2.20;;;;;;;-143.84;35.42;45075.72;5070964;28;20539;-76
2022/10/16 09:12:51;;;;;;;5.40;2.70;;;;;;;-143.84;34.97;45033.84;5070259;28;21084;-74
2022/10/16 09:15:28;;;;;;;5.10;2.87;;;;;;;-143.84;35.48;45045.25;5071963;28;20448;-73
2022/10/16 09:18:02;;;;;;;5.90;2.00;;;;;;;-143.84;35.89;45016.69;5071051;28;21301;-72
2022/10/16 09:20:35;;;;;;;8.13;2.07;;;;;;;-143.84;35.56;45039.53;5070861;28;20929;-72
2022/10/16 09:23:15;;;;;;;5.80;2.77;;;;;;;-143.84;35.30;45026.22;5071213;28;20445;-73
2022/10/16 09:25:47;;;;;;;3.67;2.33;;;;;;;-143.84;34.34;45026.22;5071234;28;20901;-73
2022/10/16 09:28:14;;;;;;;5.77;2.30;;;;;;;-143.84;34.91;45050.97;5070553;28;20922;-73
2022/10/16 09:30:42;;;;;;;3.83;2.30;;;;;;;-143.84;35.38;45054.78;5071022;28;20440;-74
2022/10/16 09:33:11;;;;;;;3.60;1.73;;;;;;;-143.84;35.29;45037.66;5070871;28;20476;-74
2022/10/16 09:35:40;;;;;;;3.30;2.10;;;;;;;-143.84;35.03;45045.25;5070506;28;20440;-75
2022/10/16 09:38:09;;;;;;;10.63;2.77;;;;;;;-143.84;34.80;45033.84;5070764;28;20449;-74
2022/10/16 09:40:39;;;;;;;7.83;3.00;;;;;;;-143.84;34.52;45043.34;5070674;28;20449;-74
2022/10/16 09:43:23;;;;;;;5.23;2.20;;;;;;;-143.84;34.93;45060.50;5071284;28;20437;-74
2022/10/16 09:45:59;;;;;;;2.10;1.97;;;;;;;-143.84;35.10;45050.97;5070701;28;20444;-74
2022/10/16 09:48:37;;;;;;;3.37;1.97;;;;;;;-143.84;35.44;45064.31;5070636;28;20995;-74
2022/10/16 09:51:17;;;;;;;4.47;2.03;;;;;;;-143.84;36.00;45060.50;5069452;28;20433;-74
2022/10/16 09:53:45;;;;;;;6.13;2.60;;;;;;;-143.84;36.05;45043.34;5070260;28;20481;-74
2022/10/16 09:56:22;;;;;;;5.53;2.37;;;;;;;-143.84;35.88;45050.97;5079334;28;20432;-74
2022/10/16 09:58:54;;;;;;;6.80;2.10;;;;;;;-143.84;35.13;45052.88;5079976;28;20504;-74
2022/10/16 10:01:23;;;;;;;3.27;2.07;;;;;;;-143.84;36.06;45056.69;5079572;28;20527;-74
2022/10/16 10:03:52;;;;;;;8.37;2.63;;;;;;;-143.84;36.41;45070.00;5075151;28;20457;-75
2022/10/16 10:06:26;;;;;;;3.83;2.00;;;;;;;-143.84;35.69;45024.31;5070514;28;20439;-74
2022/10/16 10:08:58;;;;;;;2.83;2.63;;;;;;;-143.84;36.15;45062.41;5070546;28;20445;-73
2022/10/16 10:11:49;;;;;;;7.33;2.37;;;;;;;-143.84;35.88;45037.66;5069879;28;20942;-75
2022/10/16 10:14:39;;;;;;;5.13;2.20;;;;;;;-143.84;36.44;45064.31;5070135;28;20491;-74
2022/10/16 10:17:15;;;;;;;6.77;2.20;;;;;;;-143.84;36.81;45033.84;5064423;28;20457;-74
2022/10/16 10:19:47;;;;;;;4.17;2.47;;;;;;;-143.84;35.96;45062.41;5071292;28;20432;-75
2022/10/16 10:22:28;;;;;;;7.20;2.10;;;;;;;-143.84;36.63;45050.97;5070655;28;20444;-74
2022/10/16 10:25:17;;;;;;;4.00;2.37;;;;;;;-143.84;36.82;45041.44;5070332;28;20922;-74
2022/10/16 10:27:57;;;;;;;3.30;2.33;;;;;;;-143.84;36.99;45049.06;5065286;28;20445;-74
2022/10/16 10:30:30;;;;;;;8.20;2.60;;;;;;;-143.84;36.87;45035.75;5070476;28;20540;-74
2022/10/16 10:33:13;;;;;;;5.77;2.60;;;;;;;-143.84;36.19;45035.75;5070391;28;20594;-74
2022/10/16 10:35:50;;;;;;;3.13;2.47;;;;;;;-143.84;36.76;45064.31;5069086;28;20440;-74
2022/10/16 10:38:32;;;;;;;9.90;2.97;;;;;;;-143.84;38.04;45045.25;5069936;28;20780;-75
2022/10/16 10:41:14;;;;;;;7.07;3.23;;;;;;;-143.84;37.16;45049.06;5069471;28;20448;-75
2022/10/16 10:43:57;;;;;;;4.50;2.77;;;;;;;-143.84;36.69;45062.41;5069672;28;20475;-75
2022/10/16 10:46:35;;;;;;;8.70;2.57;;;;;;;-143.84;36.98;45064.31;5069628;28;20945;-75
2022/10/16 10:49:19;;;;;;;2.63;2.30;;;;;;;-143.84;37.09;45073.81;5075478;28;20455;-73
2022/10/16 10:51:57;;;;;;;5.40;3.00;;;;;;;-143.84;38.10;45066.22;5089278;28;20436;-75
2022/10/16 10:54:31;;;;;;;4.10;2.20;;;;;;;-143.84;37.94;45060.50;5090378;28;20802;-75
2022/10/16 10:57:03;;;;;;;7.70;2.97;;;;;;;-143.84;37.53;45064.31;5089776;28;20435;-74
2022/10/16 10:59:50;;;;;;;4.97;2.70;;;;;;;-143.84;38.86;45064.31;5090317;28;20447;-76
2022/10/16 11:02:26;;;;;;;3.87;2.40;;;;;;;-143.84;36.90;45056.69;5090039;28;20456;-75
2022/10/16 11:05:19;;;;;;;4.80;2.50;;;;;;;-143.84;38.03;45066.22;5086550;28;20509;-74
2022/10/16 11:07:50;;;;;;;4.37;2.43;;;;;;;-143.84;37.64;45052.88;5081537;28;20532;-74
2022/10/16 11:10:22;;;;;;;3.30;2.47;;;;;;;-143.84;37.50;45056.69;5089598;28;20961;-75
2022/10/16 11:12:54;;;;;;;5.13;2.47;;;;;;;-143.84;37.41;45070.00;5089703;28;20556;-75
2022/10/16 11:15:28;;;;;;;2.60;2.40;;;;;;;-143.84;37.62;45064.31;5089986;28;20443;-74
2022/10/16 11:18:04;;;;;;;4.47;2.37;;;;;;;-143.84;37.70;45079.53;5091640;28;20968;-74
2022/10/16 11:20:35;;;;;;;2.83;2.23;;;;;;;-143.84;36.84;45090.97;5093886;28;20444;-74
2022/10/16 11:23:10;;;;;;;9.67;2.67;;;;;;;-143.84;37.56;45049.06;5093945;28;20855;-75
2022/10/16 11:25:37;;;;;;;8.50;2.63;;;;;;;-143.84;38.18;45056.69;5093820;28;20439;-74
2022/10/16 11:28:12;;;;;;;3.00;2.20;;;;;;;-143.84;38.25;45052.88;5093923;28;20789;-75
2022/10/16 11:30:47;;;;;;;9.60;4.17;;;;;;;-143.84;38.24;45070.00;5093418;28;20439;-75